Aeroporto :
LOGIN :

Iscrizione | Disclaimer

   EN    FR    IT 

 










Sommario :    VFR   VFR Marginale   IFR   IFR Intensivo   IFR Molto Intensivo
Visibilità : 
Base nubi : 
>= 8 km
>= 3000ft
5 / 8 km
1000 / 3000 ft
1500m / 5 km
500 / 1000 ft
800 / 1500m
200 / 500 ft
< 800m
< 200 ft
Simboli :   Temporali  Nebbia  Neve Forte  Precipitazioni Forti  Vento > 20 kt
SIGMETs :   Varie  Temporali  Ghiacco  Turbolenza  Onda orograficha  Ceneri Vulcaniche







- Altitudine del aeroporto : 5600 ft
- Codice IATA : SMV


LSZS - Samedan

ULTIMO METAR :
  • 192250Z AUTO 21002KT CAVOK M10/M13 Q1022

METARs OBSOLETI :
  • 192220Z AUTO VRB01KT CAVOK M11/M14 Q1022
  • 192150Z AUTO 19002KT CAVOK M10/M13 Q1022
  • 192120Z AUTO VRB03KT CAVOK M09/M12 Q1022
  • 192050Z AUTO VRB02KT CAVOK M10/M14 Q1022
  • 192020Z AUTO VRB01KT CAVOK M08/M12 Q1021

TAF TAF LSZS
Valido dal 19 a 15 ore il 20 a 00 ore UTC


191425Z 1915/1924 03005KT CAVOK TX05/1915Z
ATIS : +41 81 834 93 24
Nessun NOTAM noto per questo aeroporto.



MetMap, La meteo Aeronautica in un colpo d'occhio ! - Copyright ORBIFLY Dicembre 2007 - Disclaimer

ORBIFLY MET'MAP TEAM :

Programmazione e sviluppo : Alexandra Zaïnal
Concezione e sviluppo : Baudouin d'Aumeries
Co-Programmazione e sviluppo : Marc-Olivier Méhu
Supporto tecnico e logistico : Manuel Goepfert
Aiuto per la traduzione : Arnaldo La Scala

Contatto : metmap@orbifly.com




FONTI E CREDITI :

   NOAA